sensor_id;sensor_type;location;lat;lon;timestamp;P1;durP1;ratioP1;P2;durP2;ratioP2
72797;SDS011;61084;55.816;37.036;2022-09-09T00:04:28;4.57;;;3.05;;
72797;SDS011;61084;55.816;37.036;2022-09-09T00:12:23;5.47;;;2.70;;
72797;SDS011;61084;55.816;37.036;2022-09-09T00:15:14;5.68;;;2.70;;
72797;SDS011;61084;55.816;37.036;2022-09-09T00:20:20;5.72;;;2.78;;
72797;SDS011;61084;55.816;37.036;2022-09-09T00:25:58;5.35;;;2.65;;
72797;SDS011;61084;55.816;37.036;2022-09-09T00:28:31;5.25;;;2.72;;
72797;SDS011;61084;55.816;37.036;2022-09-09T00:31:16;4.40;;;2.47;;
72797;SDS011;61084;55.816;37.036;2022-09-09T00:33:48;5.03;;;3.13;;
72797;SDS011;61084;55.816;37.036;2022-09-09T00:36:17;6.03;;;3.28;;
72797;SDS011;61084;55.816;37.036;2022-09-09T00:38:49;5.05;;;2.97;;
72797;SDS011;61084;55.816;37.036;2022-09-09T00:49:54;4.88;;;2.20;;
72797;SDS011;61084;55.816;37.036;2022-09-09T00:55:31;4.03;;;2.10;;
72797;SDS011;61084;55.816;37.036;2022-09-09T00:58:01;3.90;;;2.22;;
72797;SDS011;61084;55.816;37.036;2022-09-09T01:00:27;2.85;;;1.80;;
72797;SDS011;61084;55.816;37.036;2022-09-09T01:03:12;5.75;;;2.50;;
72797;SDS011;61084;55.816;37.036;2022-09-09T01:11:36;2.88;;;1.90;;
72797;SDS011;61084;55.816;37.036;2022-09-09T01:14:16;4.72;;;2.10;;
72797;SDS011;61084;55.816;37.036;2022-09-09T01:28:25;3.20;;;1.67;;
72797;SDS011;61084;55.816;37.036;2022-09-09T01:30:57;3.47;;;2.00;;
72797;SDS011;61084;55.816;37.036;2022-09-09T01:33:26;2.88;;;1.40;;
72797;SDS011;61084;55.816;37.036;2022-09-09T01:38:29;4.40;;;1.75;;
72797;SDS011;61084;55.816;37.036;2022-09-09T01:40:57;2.40;;;1.80;;
72797;SDS011;61084;55.816;37.036;2022-09-09T01:43:31;2.05;;;1.20;;
72797;SDS011;61084;55.816;37.036;2022-09-09T01:46:00;2.45;;;1.85;;
72797;SDS011;61084;55.816;37.036;2022-09-09T01:48:28;2.10;;;1.33;;
72797;SDS011;61084;55.816;37.036;2022-09-09T01:51:02;2.65;;;1.58;;
72797;SDS011;61084;55.816;37.036;2022-09-09T01:53:28;1.52;;;1.35;;
72797;SDS011;61084;55.816;37.036;2022-09-09T01:55:58;2.40;;;1.60;;
72797;SDS011;61084;55.816;37.036;2022-09-09T01:58:29;2.15;;;1.50;;
72797;SDS011;61084;55.816;37.036;2022-09-09T02:01:07;1.80;;;1.30;;
72797;SDS011;61084;55.816;37.036;2022-09-09T02:03:57;6.75;;;1.98;;
72797;SDS011;61084;55.816;37.036;2022-09-09T02:06:34;2.60;;;1.60;;
72797;SDS011;61084;55.816;37.036;2022-09-09T02:09:17;3.47;;;1.70;;
72797;SDS011;61084;55.816;37.036;2022-09-09T02:11:47;2.25;;;1.52;;
72797;SDS011;61084;55.816;37.036;2022-09-09T02:14:25;2.05;;;1.52;;
72797;SDS011;61084;55.816;37.036;2022-09-09T02:17:09;1.85;;;1.50;;
72797;SDS011;61084;55.816;37.036;2022-09-09T02:20:03;3.90;;;1.30;;
72797;SDS011;61084;55.816;37.036;2022-09-09T02:22:58;1.98;;;1.40;;
72797;SDS011;61084;55.816;37.036;2022-09-09T02:25:28;2.60;;;1.70;;
72797;SDS011;61084;55.816;37.036;2022-09-09T02:28:01;2.33;;;1.65;;
72797;SDS011;61084;55.816;37.036;2022-09-09T02:30:32;3.92;;;1.70;;
72797;SDS011;61084;55.816;37.036;2022-09-09T02:33:00;2.38;;;1.70;;
72797;SDS011;61084;55.816;37.036;2022-09-09T02:35:44;2.25;;;1.52;;
72797;SDS011;61084;55.816;37.036;2022-09-09T02:38:14;3.75;;;1.65;;
72797;SDS011;61084;55.816;37.036;2022-09-09T02:40:53;3.03;;;1.75;;
72797;SDS011;61084;55.816;37.036;2022-09-09T02:43:19;4.00;;;1.80;;
72797;SDS011;61084;55.816;37.036;2022-09-09T02:45:56;4.25;;;1.95;;
72797;SDS011;61084;55.816;37.036;2022-09-09T02:48:36;3.63;;;1.85;;
72797;SDS011;61084;55.816;37.036;2022-09-09T02:56:51;3.00;;;1.67;;
72797;SDS011;61084;55.816;37.036;2022-09-09T02:59:29;2.42;;;1.60;;
72797;SDS011;61084;55.816;37.036;2022-09-09T03:01:56;2.38;;;1.80;;
72797;SDS011;61084;55.816;37.036;2022-09-09T03:04:23;2.97;;;2.00;;
72797;SDS011;61084;55.816;37.036;2022-09-09T03:06:51;2.28;;;1.67;;
72797;SDS011;61084;55.816;37.036;2022-09-09T03:09:19;4.25;;;1.75;;
72797;SDS011;61084;55.816;37.036;2022-09-09T03:11:45;4.03;;;2.13;;
72797;SDS011;61084;55.816;37.036;2022-09-09T03:14:13;2.42;;;1.70;;
72797;SDS011;61084;55.816;37.036;2022-09-09T03:16:40;4.15;;;1.95;;
72797;SDS011;61084;55.816;37.036;2022-09-09T03:19:07;5.57;;;1.75;;
72797;SDS011;61084;55.816;37.036;2022-09-09T03:21:33;2.60;;;1.45;;
72797;SDS011;61084;55.816;37.036;2022-09-09T03:23:59;2.03;;;1.73;;
72797;SDS011;61084;55.816;37.036;2022-09-09T03:26:25;2.92;;;1.75;;
72797;SDS011;61084;55.816;37.036;2022-09-09T03:28:51;3.08;;;1.83;;
72797;SDS011;61084;55.816;37.036;2022-09-09T03:31:20;2.45;;;1.50;;
72797;SDS011;61084;55.816;37.036;2022-09-09T03:33:46;2.17;;;1.60;;
72797;SDS011;61084;55.816;37.036;2022-09-09T03:36:15;1.67;;;1.30;;
72797;SDS011;61084;55.816;37.036;2022-09-09T03:38:41;2.92;;;1.73;;
72797;SDS011;61084;55.816;37.036;2022-09-09T03:41:07;2.53;;;2.10;;
72797;SDS011;61084;55.816;37.036;2022-09-09T03:43:34;3.10;;;1.80;;
72797;SDS011;61084;55.816;37.036;2022-09-09T03:46:00;2.92;;;2.00;;
72797;SDS011;61084;55.816;37.036;2022-09-09T03:48:28;4.20;;;1.92;;
72797;SDS011;61084;55.816;37.036;2022-09-09T03:50:54;5.03;;;1.90;;
72797;SDS011;61084;55.816;37.036;2022-09-09T03:53:22;2.22;;;1.70;;
72797;SDS011;61084;55.816;37.036;2022-09-09T03:55:52;3.13;;;1.88;;
72797;SDS011;61084;55.816;37.036;2022-09-09T03:58:22;5.45;;;1.80;;
72797;SDS011;61084;55.816;37.036;2022-09-09T04:00:54;2.75;;;1.73;;
72797;SDS011;61084;55.816;37.036;2022-09-09T04:03:25;2.35;;;1.67;;
72797;SDS011;61084;55.816;37.036;2022-09-09T04:05:52;2.63;;;1.38;;
72797;SDS011;61084;55.816;37.036;2022-09-09T04:08:20;2.33;;;1.88;;
72797;SDS011;61084;55.816;37.036;2022-09-09T04:10:49;3.38;;;1.88;;
72797;SDS011;61084;55.816;37.036;2022-09-09T04:13:17;3.60;;;1.90;;
72797;SDS011;61084;55.816;37.036;2022-09-09T04:15:44;2.28;;;1.50;;
72797;SDS011;61084;55.816;37.036;2022-09-09T04:18:17;3.40;;;1.60;;
72797;SDS011;61084;55.816;37.036;2022-09-09T04:20:43;2.17;;;1.52;;
72797;SDS011;61084;55.816;37.036;2022-09-09T04:23:11;2.83;;;1.73;;
72797;SDS011;61084;55.816;37.036;2022-09-09T04:25:37;2.80;;;1.80;;
72797;SDS011;61084;55.816;37.036;2022-09-09T04:28:03;5.00;;;2.10;;
72797;SDS011;61084;55.816;37.036;2022-09-09T04:30:29;2.63;;;1.80;;
72797;SDS011;61084;55.816;37.036;2022-09-09T04:32:56;4.75;;;1.60;;
72797;SDS011;61084;55.816;37.036;2022-09-09T04:35:22;2.40;;;1.67;;
72797;SDS011;61084;55.816;37.036;2022-09-09T04:37:48;2.42;;;1.65;;
72797;SDS011;61084;55.816;37.036;2022-09-09T04:40:16;2.42;;;1.65;;
72797;SDS011;61084;55.816;37.036;2022-09-09T04:42:42;2.05;;;1.23;;
72797;SDS011;61084;55.816;37.036;2022-09-09T04:45:11;3.25;;;1.70;;
72797;SDS011;61084;55.816;37.036;2022-09-09T04:47:41;1.98;;;1.45;;
72797;SDS011;61084;55.816;37.036;2022-09-09T04:50:08;4.30;;;2.05;;
72797;SDS011;61084;55.816;37.036;2022-09-09T04:52:34;2.60;;;1.48;;
72797;SDS011;61084;55.816;37.036;2022-09-09T04:55:01;1.85;;;1.23;;
72797;SDS011;61084;55.816;37.036;2022-09-09T04:59:54;3.15;;;1.27;;
72797;SDS011;61084;55.816;37.036;2022-09-09T05:02:20;1.90;;;1.33;;
72797;SDS011;61084;55.816;37.036;2022-09-09T05:04:46;3.97;;;1.70;;
72797;SDS011;61084;55.816;37.036;2022-09-09T05:07:12;1.90;;;1.30;;
72797;SDS011;61084;55.816;37.036;2022-09-09T05:09:39;2.90;;;1.27;;
72797;SDS011;61084;55.816;37.036;2022-09-09T05:12:06;1.38;;;1.27;;
72797;SDS011;61084;55.816;37.036;2022-09-09T05:14:35;4.82;;;1.45;;
72797;SDS011;61084;55.816;37.036;2022-09-09T05:17:03;2.35;;;1.50;;
72797;SDS011;61084;55.816;37.036;2022-09-09T05:19:29;1.17;;;0.82;;
72797;SDS011;61084;55.816;37.036;2022-09-09T05:21:55;1.85;;;1.25;;
72797;SDS011;61084;55.816;37.036;2022-09-09T05:24:29;1.60;;;1.00;;
72797;SDS011;61084;55.816;37.036;2022-09-09T05:26:59;1.67;;;1.20;;
72797;SDS011;61084;55.816;37.036;2022-09-09T05:29:27;2.05;;;0.98;;
72797;SDS011;61084;55.816;37.036;2022-09-09T05:31:55;3.25;;;0.98;;
72797;SDS011;61084;55.816;37.036;2022-09-09T05:34:21;1.52;;;1.00;;
72797;SDS011;61084;55.816;37.036;2022-09-09T05:36:49;2.17;;;1.60;;
72797;SDS011;61084;55.816;37.036;2022-09-09T05:39:15;2.03;;;1.10;;
72797;SDS011;61084;55.816;37.036;2022-09-09T05:41:41;1.85;;;1.25;;
72797;SDS011;61084;55.816;37.036;2022-09-09T05:44:07;2.92;;;1.33;;
72797;SDS011;61084;55.816;37.036;2022-09-09T05:46:37;1.50;;;0.90;;
72797;SDS011;61084;55.816;37.036;2022-09-09T05:49:03;1.30;;;0.90;;
72797;SDS011;61084;55.816;37.036;2022-09-09T05:51:32;2.03;;;0.95;;
72797;SDS011;61084;55.816;37.036;2022-09-09T05:54:03;1.52;;;1.00;;
72797;SDS011;61084;55.816;37.036;2022-09-09T05:56:32;4.47;;;1.10;;
72797;SDS011;61084;55.816;37.036;2022-09-09T05:58:59;1.45;;;0.90;;
72797;SDS011;61084;55.816;37.036;2022-09-09T06:01:30;1.92;;;1.33;;
72797;SDS011;61084;55.816;37.036;2022-09-09T06:03:58;2.60;;;0.77;;
72797;SDS011;61084;55.816;37.036;2022-09-09T06:06:32;4.18;;;0.95;;
72797;SDS011;61084;55.816;37.036;2022-09-09T06:09:05;1.05;;;0.73;;
72797;SDS011;61084;55.816;37.036;2022-09-09T06:11:36;1.15;;;0.70;;
72797;SDS011;61084;55.816;37.036;2022-09-09T06:14:04;0.60;;;0.50;;
72797;SDS011;61084;55.816;37.036;2022-09-09T06:16:31;1.25;;;0.60;;
72797;SDS011;61084;55.816;37.036;2022-09-09T06:18:58;1.13;;;0.80;;
72797;SDS011;61084;55.816;37.036;2022-09-09T06:21:27;2.50;;;0.52;;
72797;SDS011;61084;55.816;37.036;2022-09-09T06:24:03;2.20;;;0.95;;
72797;SDS011;61084;55.816;37.036;2022-09-09T06:26:37;0.50;;;0.50;;
72797;SDS011;61084;55.816;37.036;2022-09-09T06:29:08;0.50;;;0.40;;
72797;SDS011;61084;55.816;37.036;2022-09-09T06:31:35;3.25;;;0.60;;
72797;SDS011;61084;55.816;37.036;2022-09-09T06:34:21;2.88;;;1.02;;
72797;SDS011;61084;55.816;37.036;2022-09-09T06:36:52;1.10;;;0.80;;
72797;SDS011;61084;55.816;37.036;2022-09-09T06:39:17;1.00;;;0.40;;
72797;SDS011;61084;55.816;37.036;2022-09-09T06:41:44;0.52;;;0.40;;
72797;SDS011;61084;55.816;37.036;2022-09-09T06:44:33;0.57;;;0.57;;
72797;SDS011;61084;55.816;37.036;2022-09-09T06:46:59;3.53;;;0.50;;
72797;SDS011;61084;55.816;37.036;2022-09-09T06:49:26;1.85;;;0.80;;
72797;SDS011;61084;55.816;37.036;2022-09-09T06:51:52;0.95;;;0.75;;
72797;SDS011;61084;55.816;37.036;2022-09-09T06:54:18;0.88;;;0.60;;
72797;SDS011;61084;55.816;37.036;2022-09-09T06:56:45;0.65;;;0.50;;
72797;SDS011;61084;55.816;37.036;2022-09-09T06:59:19;0.88;;;0.80;;
72797;SDS011;61084;55.816;37.036;2022-09-09T07:01:46;1.17;;;0.47;;
72797;SDS011;61084;55.816;37.036;2022-09-09T07:04:14;1.27;;;0.80;;
72797;SDS011;61084;55.816;37.036;2022-09-09T07:06:44;0.80;;;0.40;;
72797;SDS011;61084;55.816;37.036;2022-09-09T07:09:21;0.40;;;0.22;;
72797;SDS011;61084;55.816;37.036;2022-09-09T07:11:49;0.63;;;0.28;;
72797;SDS011;61084;55.816;37.036;2022-09-09T07:14:21;0.88;;;0.77;;
72797;SDS011;61084;55.816;37.036;2022-09-09T07:16:53;3.90;;;0.88;;
72797;SDS011;61084;55.816;37.036;2022-09-09T07:19:18;8.13;;;3.38;;
72797;SDS011;61084;55.816;37.036;2022-09-09T07:21:49;8.02;;;2.63;;
72797;SDS011;61084;55.816;37.036;2022-09-09T07:24:18;1.30;;;0.70;;
72797;SDS011;61084;55.816;37.036;2022-09-09T07:26:45;0.50;;;0.30;;
72797;SDS011;61084;55.816;37.036;2022-09-09T07:29:11;0.25;;;0.15;;
72797;SDS011;61084;55.816;37.036;2022-09-09T07:31:40;0.65;;;0.35;;
72797;SDS011;61084;55.816;37.036;2022-09-09T07:34:10;0.47;;;0.40;;
72797;SDS011;61084;55.816;37.036;2022-09-09T07:36:37;2.70;;;0.50;;
72797;SDS011;61084;55.816;37.036;2022-09-09T07:39:07;1.52;;;0.55;;
72797;SDS011;61084;55.816;37.036;2022-09-09T07:41:37;0.90;;;0.60;;
72797;SDS011;61084;55.816;37.036;2022-09-09T07:44:12;2.97;;;1.30;;
72797;SDS011;61084;55.816;37.036;2022-09-09T07:46:41;7.25;;;4.18;;
72797;SDS011;61084;55.816;37.036;2022-09-09T07:49:09;2.70;;;1.90;;
72797;SDS011;61084;55.816;37.036;2022-09-09T07:51:40;1.55;;;0.82;;
72797;SDS011;61084;55.816;37.036;2022-09-09T07:54:10;0.98;;;0.75;;
72797;SDS011;61084;55.816;37.036;2022-09-09T07:56:41;2.00;;;1.38;;
72797;SDS011;61084;55.816;37.036;2022-09-09T07:59:08;2.13;;;1.00;;
72797;SDS011;61084;55.816;37.036;2022-09-09T08:01:36;1.50;;;0.55;;
72797;SDS011;61084;55.816;37.036;2022-09-09T08:04:08;0.40;;;0.40;;
72797;SDS011;61084;55.816;37.036;2022-09-09T08:06:38;1.63;;;0.75;;
72797;SDS011;61084;55.816;37.036;2022-09-09T08:09:07;2.15;;;0.50;;
72797;SDS011;61084;55.816;37.036;2022-09-09T08:11:35;1.88;;;1.20;;
72797;SDS011;61084;55.816;37.036;2022-09-09T08:14:03;2.33;;;1.55;;
72797;SDS011;61084;55.816;37.036;2022-09-09T08:16:31;3.53;;;1.35;;
72797;SDS011;61084;55.816;37.036;2022-09-09T08:18:59;1.05;;;0.60;;
72797;SDS011;61084;55.816;37.036;2022-09-09T08:21:26;1.52;;;1.20;;
72797;SDS011;61084;55.816;37.036;2022-09-09T08:23:55;3.22;;;1.40;;
72797;SDS011;61084;55.816;37.036;2022-09-09T08:26:26;3.40;;;1.88;;
72797;SDS011;61084;55.816;37.036;2022-09-09T08:28:55;2.33;;;1.30;;
72797;SDS011;61084;55.816;37.036;2022-09-09T08:31:24;1.85;;;0.90;;
72797;SDS011;61084;55.816;37.036;2022-09-09T08:33:54;3.33;;;1.88;;
72797;SDS011;61084;55.816;37.036;2022-09-09T08:36:22;1.10;;;0.60;;
72797;SDS011;61084;55.816;37.036;2022-09-09T08:38:55;5.00;;;1.40;;
72797;SDS011;61084;55.816;37.036;2022-09-09T08:44:10;1.98;;;1.30;;
72797;SDS011;61084;55.816;37.036;2022-09-09T08:49:57;0.73;;;0.45;;
72797;SDS011;61084;55.816;37.036;2022-09-09T08:52:39;1.75;;;0.40;;
72797;SDS011;61084;55.816;37.036;2022-09-09T08:57:39;0.30;;;0.20;;
72797;SDS011;61084;55.816;37.036;2022-09-09T09:00:07;2.78;;;1.60;;
72797;SDS011;61084;55.816;37.036;2022-09-09T09:05:09;1.27;;;0.40;;
72797;SDS011;61084;55.816;37.036;2022-09-09T09:10:45;1.23;;;0.90;;
72797;SDS011;61084;55.816;37.036;2022-09-09T09:13:19;1.05;;;0.70;;
72797;SDS011;61084;55.816;37.036;2022-09-09T09:15:55;0.40;;;0.22;;
72797;SDS011;61084;55.816;37.036;2022-09-09T09:18:25;0.40;;;0.30;;
72797;SDS011;61084;55.816;37.036;2022-09-09T09:23:21;1.38;;;0.50;;
72797;SDS011;61084;55.816;37.036;2022-09-09T09:25:55;0.90;;;0.40;;
72797;SDS011;61084;55.816;37.036;2022-09-09T09:28:29;0.50;;;0.30;;
72797;SDS011;61084;55.816;37.036;2022-09-09T09:31:09;0.85;;;0.30;;
72797;SDS011;61084;55.816;37.036;2022-09-09T09:33:52;2.00;;;0.35;;
72797;SDS011;61084;55.816;37.036;2022-09-09T09:36:24;1.05;;;0.30;;
72797;SDS011;61084;55.816;37.036;2022-09-09T09:39:34;0.20;;;0.20;;
72797;SDS011;61084;55.816;37.036;2022-09-09T09:42:11;0.52;;;0.38;;
72797;SDS011;61084;55.816;37.036;2022-09-09T09:44:41;0.20;;;0.20;;
72797;SDS011;61084;55.816;37.036;2022-09-09T09:47:15;1.50;;;0.25;;
72797;SDS011;61084;55.816;37.036;2022-09-09T09:49:55;0.52;;;0.47;;
72797;SDS011;61084;55.816;37.036;2022-09-09T09:52:26;0.20;;;0.20;;
72797;SDS011;61084;55.816;37.036;2022-09-09T09:54:54;0.22;;;0.22;;
72797;SDS011;61084;55.816;37.036;2022-09-09T09:57:24;0.60;;;0.20;;
72797;SDS011;61084;55.816;37.036;2022-09-09T10:02:42;0.57;;;0.50;;
72797;SDS011;61084;55.816;37.036;2022-09-09T10:05:15;0.20;;;0.20;;
72797;SDS011;61084;55.816;37.036;2022-09-09T10:07:45;0.65;;;0.30;;
72797;SDS011;61084;55.816;37.036;2022-09-09T10:10:45;0.35;;;0.28;;
72797;SDS011;61084;55.816;37.036;2022-09-09T10:13:14;2.40;;;1.15;;
72797;SDS011;61084;55.816;37.036;2022-09-09T10:19:13;1.00;;;0.70;;
72797;SDS011;61084;55.816;37.036;2022-09-09T10:40:46;0.50;;;0.50;;
72797;SDS011;61084;55.816;37.036;2022-09-09T10:42:53;0.40;;;0.40;;
72797;SDS011;61084;55.816;37.036;2022-09-09T10:46:08;0.63;;;0.40;;
72797;SDS011;61084;55.816;37.036;2022-09-09T10:54:37;0.65;;;0.22;;
72797;SDS011;61084;55.816;37.036;2022-09-09T10:59:54;0.55;;;0.50;;
72797;SDS011;61084;55.816;37.036;2022-09-09T11:02:31;0.50;;;0.25;;
72797;SDS011;61084;55.816;37.036;2022-09-09T11:07:39;0.55;;;0.40;;
72797;SDS011;61084;55.816;37.036;2022-09-09T11:10:34;0.40;;;0.40;;
72797;SDS011;61084;55.816;37.036;2022-09-09T11:13:10;0.30;;;0.30;;
72797;SDS011;61084;55.816;37.036;2022-09-09T11:15:42;0.40;;;0.40;;
72797;SDS011;61084;55.816;37.036;2022-09-09T11:18:13;1.65;;;0.30;;
72797;SDS011;61084;55.816;37.036;2022-09-09T11:20:44;0.30;;;0.30;;
72797;SDS011;61084;55.816;37.036;2022-09-09T11:23:17;0.40;;;0.22;;
72797;SDS011;61084;55.816;37.036;2022-09-09T11:26:06;1.23;;;0.63;;
72797;SDS011;61084;55.816;37.036;2022-09-09T11:39:47;0.40;;;0.40;;
72797;SDS011;61084;55.816;37.036;2022-09-09T11:42:36;1.60;;;0.45;;
72797;SDS011;61084;55.816;37.036;2022-09-09T11:45:08;0.40;;;0.30;;
72797;SDS011;61084;55.816;37.036;2022-09-09T11:47:36;0.93;;;0.60;;
72797;SDS011;61084;55.816;37.036;2022-09-09T11:52:42;0.45;;;0.40;;
72797;SDS011;61084;55.816;37.036;2022-09-09T11:55:26;1.30;;;0.40;;
72797;SDS011;61084;55.816;37.036;2022-09-09T12:05:54;2.10;;;0.60;;
72797;SDS011;61084;55.816;37.036;2022-09-09T12:08:24;1.75;;;0.50;;
72797;SDS011;61084;55.816;37.036;2022-09-09T12:10:54;0.32;;;0.30;;
72797;SDS011;61084;55.816;37.036;2022-09-09T12:13:22;0.57;;;0.50;;
72797;SDS011;61084;55.816;37.036;2022-09-09T12:15:51;1.00;;;0.75;;
72797;SDS011;61084;55.816;37.036;2022-09-09T12:32:11;0.68;;;0.35;;
72797;SDS011;61084;55.816;37.036;2022-09-09T12:34:47;0.60;;;0.50;;
72797;SDS011;61084;55.816;37.036;2022-09-09T12:37:23;1.20;;;0.50;;
72797;SDS011;61084;55.816;37.036;2022-09-09T12:42:21;0.70;;;0.50;;
72797;SDS011;61084;55.816;37.036;2022-09-09T12:44:51;3.42;;;0.50;;
72797;SDS011;61084;55.816;37.036;2022-09-09T12:47:17;0.50;;;0.40;;
72797;SDS011;61084;55.816;37.036;2022-09-09T12:49:46;0.93;;;0.60;;
72797;SDS011;61084;55.816;37.036;2022-09-09T12:52:17;0.88;;;0.50;;
72797;SDS011;61084;55.816;37.036;2022-09-09T12:54:50;1.17;;;0.70;;
72797;SDS011;61084;55.816;37.036;2022-09-09T12:57:17;1.48;;;0.68;;
72797;SDS011;61084;55.816;37.036;2022-09-09T12:59:43;4.50;;;0.90;;
72797;SDS011;61084;55.816;37.036;2022-09-09T13:04:50;1.42;;;0.47;;
72797;SDS011;61084;55.816;37.036;2022-09-09T13:09:43;0.63;;;0.50;;
72797;SDS011;61084;55.816;37.036;2022-09-09T13:12:14;1.73;;;0.77;;
72797;SDS011;61084;55.816;37.036;2022-09-09T13:14:45;0.63;;;0.60;;
72797;SDS011;61084;55.816;37.036;2022-09-09T13:17:17;1.35;;;0.90;;
72797;SDS011;61084;55.816;37.036;2022-09-09T13:19:46;0.98;;;0.57;;
72797;SDS011;61084;55.816;37.036;2022-09-09T13:22:20;0.65;;;0.60;;
72797;SDS011;61084;55.816;37.036;2022-09-09T13:27:34;0.80;;;0.50;;
72797;SDS011;61084;55.816;37.036;2022-09-09T13:35:32;2.20;;;1.52;;
72797;SDS011;61084;55.816;37.036;2022-09-09T13:37:59;1.27;;;0.95;;
72797;SDS011;61084;55.816;37.036;2022-09-09T13:40:32;1.95;;;0.75;;
72797;SDS011;61084;55.816;37.036;2022-09-09T13:42:59;1.17;;;0.90;;
72797;SDS011;61084;55.816;37.036;2022-09-09T13:45:27;2.75;;;0.40;;
72797;SDS011;61084;55.816;37.036;2022-09-09T13:47:53;0.80;;;0.60;;
72797;SDS011;61084;55.816;37.036;2022-09-09T13:50:25;1.45;;;1.10;;
72797;SDS011;61084;55.816;37.036;2022-09-09T13:52:55;1.20;;;0.85;;
72797;SDS011;61084;55.816;37.036;2022-09-09T13:55:25;0.95;;;0.50;;
72797;SDS011;61084;55.816;37.036;2022-09-09T13:57:53;1.13;;;0.93;;
72797;SDS011;61084;55.816;37.036;2022-09-09T14:00:21;1.40;;;0.80;;
72797;SDS011;61084;55.816;37.036;2022-09-09T14:02:49;1.08;;;0.70;;
72797;SDS011;61084;55.816;37.036;2022-09-09T14:05:16;2.00;;;0.98;;
72797;SDS011;61084;55.816;37.036;2022-09-09T14:07:43;0.82;;;0.50;;
72797;SDS011;61084;55.816;37.036;2022-09-09T14:10:10;1.27;;;0.50;;
72797;SDS011;61084;55.816;37.036;2022-09-09T14:12:36;0.80;;;0.75;;
72797;SDS011;61084;55.816;37.036;2022-09-09T14:15:03;0.88;;;0.70;;
72797;SDS011;61084;55.816;37.036;2022-09-09T14:17:30;0.63;;;0.40;;
72797;SDS011;61084;55.816;37.036;2022-09-09T14:19:57;0.98;;;0.40;;
72797;SDS011;61084;55.816;37.036;2022-09-09T14:22:23;0.22;;;0.13;;
72797;SDS011;61084;55.816;37.036;2022-09-09T14:24:49;0.90;;;0.50;;
72797;SDS011;61084;55.816;37.036;2022-09-09T14:27:16;0.57;;;0.40;;
72797;SDS011;61084;55.816;37.036;2022-09-09T14:29:43;0.50;;;0.50;;
72797;SDS011;61084;55.816;37.036;2022-09-09T14:32:09;3.25;;;0.70;;
72797;SDS011;61084;55.816;37.036;2022-09-09T14:37:01;2.55;;;0.50;;
72797;SDS011;61084;55.816;37.036;2022-09-09T14:39:27;0.95;;;0.50;;
72797;SDS011;61084;55.816;37.036;2022-09-09T14:41:53;2.88;;;0.60;;
72797;SDS011;61084;55.816;37.036;2022-09-09T14:44:19;0.88;;;0.52;;
72797;SDS011;61084;55.816;37.036;2022-09-09T14:46:45;3.13;;;0.73;;
72797;SDS011;61084;55.816;37.036;2022-09-09T14:49:11;1.05;;;0.57;;
72797;SDS011;61084;55.816;37.036;2022-09-09T14:51:38;2.25;;;0.65;;
72797;SDS011;61084;55.816;37.036;2022-09-09T14:54:04;1.90;;;1.27;;
72797;SDS011;61084;55.816;37.036;2022-09-09T14:56:31;2.80;;;1.10;;
72797;SDS011;61084;55.816;37.036;2022-09-09T14:59:00;2.03;;;0.95;;
72797;SDS011;61084;55.816;37.036;2022-09-09T15:01:26;1.70;;;0.90;;
72797;SDS011;61084;55.816;37.036;2022-09-09T15:03:56;2.83;;;1.15;;
72797;SDS011;61084;55.816;37.036;2022-09-09T15:06:25;2.20;;;0.93;;
72797;SDS011;61084;55.816;37.036;2022-09-09T15:08:53;1.13;;;0.45;;
72797;SDS011;61084;55.816;37.036;2022-09-09T15:11:20;1.10;;;0.70;;
72797;SDS011;61084;55.816;37.036;2022-09-09T15:13:46;1.17;;;0.60;;
72797;SDS011;61084;55.816;37.036;2022-09-09T15:16:15;2.28;;;0.80;;
72797;SDS011;61084;55.816;37.036;2022-09-09T15:18:43;2.05;;;0.52;;
72797;SDS011;61084;55.816;37.036;2022-09-09T15:21:10;0.93;;;0.52;;
72797;SDS011;61084;55.816;37.036;2022-09-09T15:23:44;0.90;;;0.50;;
72797;SDS011;61084;55.816;37.036;2022-09-09T15:26:12;1.88;;;0.90;;
72797;SDS011;61084;55.816;37.036;2022-09-09T15:28:43;1.50;;;0.60;;
72797;SDS011;61084;55.816;37.036;2022-09-09T15:34:01;0.70;;;0.60;;
72797;SDS011;61084;55.816;37.036;2022-09-09T15:36:30;1.67;;;0.90;;
72797;SDS011;61084;55.816;37.036;2022-09-09T15:39:01;1.17;;;0.60;;
72797;SDS011;61084;55.816;37.036;2022-09-09T15:41:29;3.00;;;0.73;;
72797;SDS011;61084;55.816;37.036;2022-09-09T15:43:57;0.82;;;0.63;;
72797;SDS011;61084;55.816;37.036;2022-09-09T15:46:24;0.60;;;0.57;;
72797;SDS011;61084;55.816;37.036;2022-09-09T15:48:54;1.33;;;0.70;;
72797;SDS011;61084;55.816;37.036;2022-09-09T15:51:22;0.60;;;0.50;;
72797;SDS011;61084;55.816;37.036;2022-09-09T15:53:49;0.65;;;0.50;;
72797;SDS011;61084;55.816;37.036;2022-09-09T15:56:20;0.80;;;0.60;;
72797;SDS011;61084;55.816;37.036;2022-09-09T15:58:46;0.90;;;0.60;;
72797;SDS011;61084;55.816;37.036;2022-09-09T16:01:12;1.33;;;0.60;;
72797;SDS011;61084;55.816;37.036;2022-09-09T16:03:41;1.73;;;0.50;;
72797;SDS011;61084;55.816;37.036;2022-09-09T16:06:08;9.20;;;1.17;;
72797;SDS011;61084;55.816;37.036;2022-09-09T16:11:08;1.98;;;0.90;;
72797;SDS011;61084;55.816;37.036;2022-09-09T16:13:40;3.90;;;0.85;;
72797;SDS011;61084;55.816;37.036;2022-09-09T16:16:07;2.72;;;0.70;;
72797;SDS011;61084;55.816;37.036;2022-09-09T16:18:41;1.50;;;0.80;;
72797;SDS011;61084;55.816;37.036;2022-09-09T16:21:29;1.95;;;1.00;;
72797;SDS011;61084;55.816;37.036;2022-09-09T16:23:59;2.13;;;1.10;;
72797;SDS011;61084;55.816;37.036;2022-09-09T16:26:26;1.95;;;1.10;;
72797;SDS011;61084;55.816;37.036;2022-09-09T16:28:52;1.80;;;1.30;;
72797;SDS011;61084;55.816;37.036;2022-09-09T16:33:47;2.88;;;1.10;;
72797;SDS011;61084;55.816;37.036;2022-09-09T16:36:16;2.33;;;1.02;;
72797;SDS011;61084;55.816;37.036;2022-09-09T16:38:43;2.90;;;1.20;;
72797;SDS011;61084;55.816;37.036;2022-09-09T16:41:10;2.45;;;1.13;;
72797;SDS011;61084;55.816;37.036;2022-09-09T16:43:38;3.08;;;1.23;;
72797;SDS011;61084;55.816;37.036;2022-09-09T16:46:18;2.47;;;1.48;;
72797;SDS011;61084;55.816;37.036;2022-09-09T16:48:45;1.95;;;1.40;;
72797;SDS011;61084;55.816;37.036;2022-09-09T16:51:14;4.00;;;1.30;;
72797;SDS011;61084;55.816;37.036;2022-09-09T16:53:48;3.03;;;1.30;;
72797;SDS011;61084;55.816;37.036;2022-09-09T16:56:18;3.20;;;1.67;;
72797;SDS011;61084;55.816;37.036;2022-09-09T16:58:58;4.55;;;2.08;;
72797;SDS011;61084;55.816;37.036;2022-09-09T17:01:30;2.85;;;1.65;;
72797;SDS011;61084;55.816;37.036;2022-09-09T17:03:59;3.95;;;1.65;;
72797;SDS011;61084;55.816;37.036;2022-09-09T17:06:29;5.15;;;2.42;;
72797;SDS011;61084;55.816;37.036;2022-09-09T17:08:59;4.07;;;2.58;;
72797;SDS011;61084;55.816;37.036;2022-09-09T17:11:28;5.45;;;3.20;;
72797;SDS011;61084;55.816;37.036;2022-09-09T17:13:55;4.88;;;3.15;;
72797;SDS011;61084;55.816;37.036;2022-09-09T17:16:24;6.57;;;4.57;;
72797;SDS011;61084;55.816;37.036;2022-09-09T17:18:52;6.97;;;4.10;;
72797;SDS011;61084;55.816;37.036;2022-09-09T17:21:20;4.60;;;2.97;;
72797;SDS011;61084;55.816;37.036;2022-09-09T17:23:49;7.40;;;3.55;;
72797;SDS011;61084;55.816;37.036;2022-09-09T17:26:17;5.03;;;2.95;;
72797;SDS011;61084;55.816;37.036;2022-09-09T17:28:44;5.50;;;2.65;;
72797;SDS011;61084;55.816;37.036;2022-09-09T17:31:14;4.95;;;2.50;;
72797;SDS011;61084;55.816;37.036;2022-09-09T17:33:46;6.60;;;2.90;;
72797;SDS011;61084;55.816;37.036;2022-09-09T17:36:17;4.20;;;2.67;;
72797;SDS011;61084;55.816;37.036;2022-09-09T17:38:44;4.60;;;2.40;;
72797;SDS011;61084;55.816;37.036;2022-09-09T17:41:19;5.05;;;2.80;;